Henry, Illinois
Current Conditions -  °F | °C
As of 1:10 AM on Saturday 29 Nov 2014 (Local Time) from KC75 Reporting Station
Clear Clear  
Wind Chill: 29°   Ceiling: Unl
Heat Index: 35°   Visibility: 10mi
Dew Point: 31°   Wind: 7mph
Humidity: 85%   Direction: 170°S
Pressure: 29.8"   Gusts: NA
Location:  41.11°N, 89.36°W
Report Text: KC75 290710Z AUTO 17006KT 10SM CLR 02/M01 A2980 RMK AO2 T00161007
Loading
Personal Weather Stations






























Interactive Weather Map New forecast layout! Learn more

10-Day Weather Forecast

Advertisements
Track Severe Weather on mobile